createdAt,value
2023-02-09T00:00:08.959Z,72.96
2023-02-09T00:03:01.222Z,72.76
2023-02-09T00:05:46.750Z,72.84
2023-02-09T00:08:33.101Z,73.05
2023-02-09T00:11:49.132Z,73.12
2023-02-09T00:14:34.903Z,73.05
2023-02-09T00:17:20.876Z,73.24
2023-02-09T00:20:07.506Z,73.04
2023-02-09T00:22:56.363Z,72.87
2023-02-09T00:25:41.613Z,72.75
2023-02-09T00:28:27.810Z,72.97
2023-02-09T00:31:13.545Z,73.49
2023-02-09T00:34:00.442Z,72.81
2023-02-09T00:36:48.881Z,73.29
2023-02-09T00:39:35.224Z,73.21
2023-02-09T00:42:23.849Z,73.17
2023-02-09T00:45:10.284Z,73.34
2023-02-09T00:47:55.761Z,73.29
2023-02-09T00:50:42.021Z,73.07
2023-02-09T00:53:28.131Z,73.30
2023-02-09T00:56:13.954Z,73.52
2023-02-09T00:58:59.607Z,73.86
2023-02-09T01:01:47.008Z,73.61
2023-02-09T01:04:33.475Z,73.86
2023-02-09T01:07:19.604Z,73.66
2023-02-09T01:10:05.826Z,73.87
2023-02-09T01:12:51.666Z,73.84
2023-02-09T01:15:40.095Z,73.49
2023-02-09T01:18:26.113Z,73.72
2023-02-09T01:21:21.359Z,73.18
2023-02-09T01:24:08.100Z,73.31
2023-02-09T01:26:53.693Z,73.03
2023-02-09T01:29:42.420Z,72.94
2023-02-09T01:32:32.203Z,73.23
2023-02-09T01:35:23.630Z,73.00
2023-02-09T01:38:10.872Z,73.03
2023-02-09T01:41:00.928Z,72.67
2023-02-09T01:44:01.836Z,72.91
2023-02-09T01:46:47.876Z,72.68
2023-02-09T01:49:36.888Z,72.81
2023-02-09T01:52:28.013Z,73.08
2023-02-09T01:55:18.327Z,73.01
2023-02-09T01:58:13.507Z,72.89
2023-02-09T02:01:00.249Z,73.22
2023-02-09T02:03:49.349Z,73.16
2023-02-09T02:06:35.393Z,73.37
2023-02-09T02:09:21.666Z,73.22
2023-02-09T02:12:21.346Z,73.25
2023-02-09T02:15:07.418Z,73.20
2023-02-09T02:18:17.985Z,73.91
2023-02-09T02:21:29.860Z,73.73
2023-02-09T02:24:39.905Z,74.02
2023-02-09T02:27:51.050Z,73.94
2023-02-09T02:31:10.878Z,73.79
2023-02-09T02:34:02.219Z,74.01
2023-02-09T02:37:06.419Z,74.50
2023-02-09T02:40:11.804Z,74.85
2023-02-09T02:43:20.955Z,74.71
2023-02-09T02:46:27.070Z,74.38
2023-02-09T02:49:37.393Z,74.24
2023-02-09T02:52:22.998Z,74.32
2023-02-09T02:55:18.687Z,74.36
2023-02-09T02:58:09.404Z,74.26
2023-02-09T03:00:58.510Z,74.25
2023-02-09T03:03:47.516Z,74.50
2023-02-09T03:06:35.216Z,74.41
2023-02-09T03:09:23.224Z,74.51
2023-02-09T03:12:18.755Z,74.05
2023-02-09T03:15:26.561Z,74.26
2023-02-09T03:18:27.046Z,74.48
2023-02-09T03:21:21.246Z,74.25
2023-02-09T03:24:29.671Z,74.07
2023-02-09T03:27:45.707Z,74.67
2023-02-09T03:30:33.471Z,74.90
2023-02-09T03:33:23.505Z,74.92
2023-02-09T03:36:14.233Z,74.54
2023-02-09T03:38:59.670Z,74.91
2023-02-09T03:41:47.589Z,75.11
2023-02-09T03:44:33.242Z,74.91
2023-02-09T03:47:18.961Z,74.92
2023-02-09T03:50:07.251Z,75.28
2023-02-09T03:52:53.006Z,75.07
2023-02-09T03:55:42.078Z,74.93
2023-02-09T03:58:27.960Z,75.00
2023-02-09T04:01:13.606Z,75.42
2023-02-09T04:04:03.267Z,75.41
2023-02-09T04:06:49.715Z,75.19
2023-02-09T04:09:36.828Z,75.40
2023-02-09T04:12:22.828Z,75.69
2023-02-09T04:15:08.918Z,75.86
2023-02-09T04:17:54.643Z,75.93
2023-02-09T04:20:40.018Z,75.61
2023-02-09T04:23:25.912Z,75.54
2023-02-09T04:26:11.441Z,75.75
2023-02-09T04:28:56.918Z,75.30
2023-02-09T04:31:42.299Z,75.65
2023-02-09T04:34:28.152Z,75.31
2023-02-09T04:37:13.858Z,75.55
2023-02-09T04:39:59.723Z,75.68
2023-02-09T04:42:46.632Z,75.95
2023-02-09T04:45:32.573Z,75.61
2023-02-09T04:48:20.783Z,75.97
2023-02-09T04:51:06.456Z,75.76
2023-02-09T04:53:51.890Z,75.93
2023-02-09T04:56:38.884Z,75.82
2023-02-09T04:59:36.473Z,76.07
2023-02-09T05:02:21.981Z,76.15
2023-02-09T05:05:10.737Z,76.01
2023-02-09T05:07:56.831Z,76.12
2023-02-09T05:10:42.700Z,76.13
2023-02-09T05:13:28.652Z,75.71
2023-02-09T05:16:17.992Z,75.64
2023-02-09T05:19:04.461Z,75.86
2023-02-09T05:21:49.751Z,75.95
2023-02-09T05:24:35.239Z,75.63
2023-02-09T05:27:20.815Z,76.20
2023-02-09T05:30:07.016Z,76.31
2023-02-09T05:32:54.120Z,76.02
2023-02-09T05:35:40.354Z,76.23
2023-02-09T05:38:26.184Z,75.85
2023-02-09T05:41:36.763Z,76.20
2023-02-09T05:44:22.600Z,75.72
2023-02-09T05:47:08.357Z,76.13
2023-02-09T05:49:53.854Z,76.14
2023-02-09T05:52:39.524Z,76.28
2023-02-09T05:55:24.866Z,76.72
2023-02-09T05:58:10.827Z,76.22
2023-02-09T06:00:59.878Z,76.30
2023-02-09T06:03:48.168Z,76.03
2023-02-09T06:06:34.011Z,76.51
2023-02-09T06:09:21.025Z,76.47
2023-02-09T06:12:06.439Z,76.84
2023-02-09T06:14:51.893Z,76.11
2023-02-09T06:17:37.744Z,76.73
2023-02-09T06:20:23.322Z,76.59
2023-02-09T06:23:08.691Z,76.51
2023-02-09T06:25:54.709Z,76.84
2023-02-09T06:28:40.653Z,76.84
2023-02-09T06:31:26.477Z,76.83
2023-02-09T06:34:11.913Z,76.48
2023-02-09T06:36:58.016Z,76.45
2023-02-09T06:39:46.132Z,76.90
2023-02-09T06:42:44.172Z,76.78
2023-02-09T06:45:29.846Z,77.40
2023-02-09T06:48:15.682Z,77.03
2023-02-09T06:51:01.446Z,77.05
2023-02-09T06:53:47.253Z,76.73
2023-02-09T06:56:32.653Z,76.87
2023-02-09T06:59:18.404Z,77.24
2023-02-09T07:02:04.420Z,77.19
2023-02-09T07:04:50.409Z,77.00
2023-02-09T07:07:36.556Z,76.86
2023-02-09T07:10:22.418Z,76.97
2023-02-09T07:13:08.119Z,77.10
2023-02-09T07:15:58.221Z,77.55
2023-02-09T07:18:44.051Z,77.44
2023-02-09T07:21:29.562Z,77.56
2023-02-09T07:24:15.566Z,77.75
2023-02-09T07:27:01.383Z,77.86
2023-02-09T07:29:47.051Z,77.88
2023-02-09T07:32:34.206Z,78.30
2023-02-09T07:35:19.776Z,78.46
2023-02-09T07:38:05.292Z,78.02
2023-02-09T07:40:51.083Z,78.34
2023-02-09T07:43:37.182Z,78.14
2023-02-09T07:46:23.769Z,78.35
2023-02-09T07:49:10.080Z,78.26
2023-02-09T07:51:55.520Z,78.32
2023-02-09T07:54:41.064Z,78.60
2023-02-09T07:57:27.800Z,78.79
2023-02-09T08:00:14.136Z,79.12
2023-02-09T08:03:04.670Z,78.83
2023-02-09T08:05:58.224Z,79.35
2023-02-09T08:08:43.391Z,79.06
2023-02-09T08:11:40.957Z,78.71
2023-02-09T08:14:30.252Z,78.63
2023-02-09T08:17:24.421Z,78.70
2023-02-09T08:20:18.272Z,78.84
2023-02-09T08:23:09.027Z,79.07
2023-02-09T08:25:55.237Z,79.08
2023-02-09T08:28:45.130Z,79.37
2023-02-09T08:31:31.300Z,79.04
2023-02-09T08:34:16.883Z,79.18
2023-02-09T08:37:02.203Z,78.89
2023-02-09T08:39:47.865Z,78.82
2023-02-09T08:42:33.570Z,79.01
2023-02-09T08:45:19.510Z,79.02
2023-02-09T08:48:06.697Z,78.94
2023-02-09T08:50:52.699Z,78.97
2023-02-09T08:53:38.907Z,78.50
2023-02-09T08:56:24.609Z,78.90
2023-02-09T08:59:11.020Z,78.82
2023-02-09T09:01:56.738Z,78.44
2023-02-09T09:04:42.249Z,78.63
2023-02-09T09:07:27.764Z,78.34
2023-02-09T09:10:13.957Z,78.09
2023-02-09T09:12:59.910Z,78.17
2023-02-09T09:15:46.143Z,77.82
2023-02-09T09:18:32.139Z,77.88
2023-02-09T09:21:19.249Z,77.77
2023-02-09T09:24:05.347Z,77.62
2023-02-09T09:26:50.940Z,77.61
2023-02-09T09:29:36.997Z,77.22
2023-02-09T09:32:25.150Z,76.98
2023-02-09T09:35:10.863Z,77.13
2023-02-09T09:37:58.686Z,76.98
2023-02-09T09:40:46.245Z,76.73
2023-02-09T09:43:36.570Z,76.68
2023-02-09T09:46:32.824Z,76.63
2023-02-09T09:49:28.114Z,76.20
2023-02-09T09:52:45.627Z,76.05
2023-02-09T09:55:32.586Z,76.01
2023-02-09T09:58:20.000Z,75.78
2023-02-09T10:01:07.063Z,75.28
2023-02-09T10:03:52.836Z,75.45
2023-02-09T10:06:42.213Z,75.06
2023-02-09T10:09:49.926Z,74.47
2023-02-09T10:12:41.652Z,74.48
2023-02-09T10:15:33.363Z,74.45
2023-02-09T10:18:25.328Z,74.38
2023-02-09T10:21:14.990Z,74.25
2023-02-09T10:24:00.651Z,73.88
2023-02-09T10:27:21.544Z,73.62
2023-02-09T10:30:19.015Z,73.42
2023-02-09T10:33:04.549Z,73.48
2023-02-09T10:35:56.586Z,73.20
2023-02-09T10:38:42.253Z,73.24
2023-02-09T10:41:33.367Z,73.26
2023-02-09T10:44:34.171Z,73.09
2023-02-09T10:47:19.776Z,73.06
2023-02-09T10:50:11.711Z,72.70
2023-02-09T10:53:03.473Z,72.93
2023-02-09T10:55:49.220Z,72.85
2023-02-09T10:58:36.836Z,72.65
2023-02-09T11:01:25.812Z,72.68
2023-02-09T11:04:23.375Z,72.48
2023-02-09T11:07:12.296Z,72.35
2023-02-09T11:09:59.780Z,72.09
2023-02-09T11:12:45.922Z,71.90
2023-02-09T11:15:39.622Z,71.57
2023-02-09T11:18:28.894Z,71.72
2023-02-09T11:21:45.407Z,71.30
2023-02-09T11:24:56.803Z,71.08
2023-02-09T11:27:48.288Z,70.99
2023-02-09T11:30:37.188Z,71.02
2023-02-09T11:33:41.808Z,70.78
2023-02-09T11:36:47.606Z,70.64
2023-02-09T11:39:57.095Z,70.35
2023-02-09T11:43:01.891Z,70.08
2023-02-09T11:45:52.832Z,69.04
2023-02-09T11:48:50.128Z,69.48
2023-02-09T11:51:39.622Z,69.61
2023-02-09T11:54:33.148Z,70.08
2023-02-09T11:57:31.505Z,69.61
2023-02-09T12:00:25.050Z,69.91
2023-02-09T12:03:13.862Z,69.04
2023-02-09T12:06:00.113Z,69.20
2023-02-09T12:08:55.290Z,69.53
2023-02-09T12:11:59.192Z,68.65
2023-02-09T12:15:14.005Z,69.12
2023-02-09T12:18:10.931Z,68.45
2023-02-09T12:21:06.152Z,68.28
2023-02-09T12:23:51.969Z,67.83
2023-02-09T12:26:43.116Z,66.51
2023-02-09T12:29:35.600Z,67.36
2023-02-09T12:32:40.791Z,66.77
2023-02-09T12:35:37.598Z,66.66
2023-02-09T12:38:24.443Z,66.51
2023-02-09T12:41:12.946Z,66.70
2023-02-09T12:44:21.795Z,66.05
2023-02-09T12:47:56.667Z,66.26
2023-02-09T12:50:42.372Z,66.03
2023-02-09T12:53:28.193Z,65.52
2023-02-09T12:56:14.030Z,65.59
2023-02-09T12:59:19.352Z,65.87
2023-02-09T13:02:08.192Z,65.54
2023-02-09T13:05:00.606Z,64.76
2023-02-09T13:07:55.648Z,64.86
2023-02-09T13:10:59.628Z,65.40
2023-02-09T13:13:52.586Z,65.33
2023-02-09T13:16:50.551Z,64.76
2023-02-09T13:20:10.154Z,64.09
2023-02-09T13:23:50.384Z,64.00
2023-02-09T13:26:47.750Z,63.12
2023-02-09T13:29:33.085Z,63.96
2023-02-09T13:32:33.466Z,63.07
2023-02-09T13:35:34.887Z,63.34
2023-02-09T13:38:21.866Z,63.23
2023-02-09T13:41:23.345Z,63.32
2023-02-09T13:44:26.462Z,62.31
2023-02-09T13:47:16.068Z,62.24
2023-02-09T13:50:11.711Z,62.50
2023-02-09T13:53:11.402Z,62.73
2023-02-09T13:56:00.636Z,62.79
2023-02-09T13:58:48.213Z,62.75
2023-02-09T14:01:37.033Z,63.20
2023-02-09T14:04:31.292Z,63.95
2023-02-09T14:07:18.446Z,64.53
2023-02-09T14:10:15.020Z,64.76
2023-02-09T14:13:14.246Z,64.23
2023-02-09T14:16:07.699Z,62.71
2023-02-09T14:18:56.120Z,60.91
2023-02-09T14:21:44.919Z,58.87
2023-02-09T14:24:44.132Z,56.52
2023-02-09T14:27:33.178Z,55.51
2023-02-09T14:30:29.718Z,52.02
2023-02-09T14:33:28.840Z,50.16
2023-02-09T14:36:35.132Z,50.85
2023-02-09T14:39:21.466Z,51.63
2023-02-09T14:42:10.739Z,53.76
2023-02-09T14:44:58.057Z,53.55
2023-02-09T14:47:44.854Z,53.87
2023-02-09T14:50:30.895Z,54.01
2023-02-09T14:53:18.313Z,54.46
2023-02-09T14:56:04.526Z,54.57
2023-02-09T14:58:50.364Z,54.81
2023-02-09T15:01:36.293Z,55.12
2023-02-09T15:04:22.382Z,55.17
2023-02-09T15:07:14.836Z,55.38
2023-02-09T15:10:02.848Z,56.07
2023-02-09T15:12:48.862Z,56.17
2023-02-09T15:15:38.104Z,55.65
2023-02-09T15:18:26.447Z,55.27
2023-02-09T15:21:12.133Z,56.49
2023-02-09T15:23:58.007Z,56.88
2023-02-09T15:26:45.133Z,56.99
2023-02-09T15:29:31.279Z,57.69
2023-02-09T15:32:19.716Z,57.95
2023-02-09T15:35:05.532Z,58.02
2023-02-09T15:37:54.586Z,58.32
2023-02-09T15:41:02.535Z,58.63
2023-02-09T15:44:07.538Z,58.91
2023-02-09T15:47:11.718Z,58.78
2023-02-09T15:49:57.524Z,59.26
2023-02-09T15:52:43.051Z,59.28
2023-02-09T15:55:29.858Z,59.40
2023-02-09T15:58:18.704Z,59.46
2023-02-09T16:01:05.478Z,59.68
2023-02-09T16:03:51.438Z,59.96
2023-02-09T16:06:39.025Z,60.17
2023-02-09T16:09:28.016Z,59.87
2023-02-09T16:12:13.806Z,60.25
2023-02-09T16:14:59.460Z,60.91
2023-02-09T16:17:45.152Z,60.59
2023-02-09T16:20:31.613Z,61.40
2023-02-09T16:23:23.515Z,61.39
2023-02-09T16:26:09.659Z,61.57
2023-02-09T16:28:56.051Z,61.97
2023-02-09T16:31:41.772Z,62.23
2023-02-09T16:34:27.577Z,62.04
2023-02-09T16:37:29.338Z,61.73
2023-02-09T16:40:26.279Z,62.47
2023-02-09T16:43:13.429Z,62.55
2023-02-09T16:46:03.828Z,62.64
2023-02-09T16:48:50.035Z,62.82
2023-02-09T16:51:36.287Z,62.98
2023-02-09T16:54:22.196Z,63.39
2023-02-09T16:57:11.891Z,63.67
2023-02-09T16:59:57.498Z,63.55
2023-02-09T17:02:50.953Z,63.92
2023-02-09T17:05:37.260Z,63.75
2023-02-09T17:08:30.422Z,63.83
2023-02-09T17:11:20.376Z,64.36
2023-02-09T17:14:06.852Z,64.37
2023-02-09T17:16:54.157Z,64.17
2023-02-09T17:19:47.875Z,64.55
2023-02-09T17:22:34.289Z,64.36
2023-02-09T17:25:23.623Z,64.63
2023-02-09T17:28:10.649Z,64.76
2023-02-09T17:31:00.108Z,65.14
2023-02-09T17:33:49.296Z,64.80
2023-02-09T17:36:37.641Z,65.09
2023-02-09T17:39:23.455Z,65.33
2023-02-09T17:42:20.969Z,65.29
2023-02-09T17:45:19.278Z,65.62
2023-02-09T17:48:06.821Z,65.68
2023-02-09T17:50:57.645Z,65.69
2023-02-09T17:53:43.588Z,65.92
2023-02-09T17:56:29.262Z,65.95
2023-02-09T17:59:14.991Z,65.93
2023-02-09T18:02:01.400Z,66.00
2023-02-09T18:04:47.437Z,66.09
2023-02-09T18:07:33.061Z,66.09
2023-02-09T18:10:22.348Z,66.19
2023-02-09T18:13:16.133Z,66.34
2023-02-09T18:16:02.398Z,66.27
2023-02-09T18:18:48.294Z,66.66
2023-02-09T18:21:34.717Z,66.51
2023-02-09T18:24:22.966Z,66.66
2023-02-09T18:27:14.763Z,67.12
2023-02-09T18:30:00.396Z,66.89
2023-02-09T18:32:47.620Z,66.99
2023-02-09T18:35:36.822Z,67.07
2023-02-09T18:38:22.671Z,67.33
2023-02-09T18:41:15.106Z,67.28
2023-02-09T18:44:01.766Z,67.30
2023-02-09T18:46:47.750Z,67.88
2023-02-09T18:49:33.487Z,67.73
2023-02-09T18:52:21.156Z,67.89
2023-02-09T18:55:06.755Z,67.69
2023-02-09T18:57:52.810Z,67.84
2023-02-09T19:00:39.148Z,68.01
2023-02-09T19:03:25.530Z,67.69
2023-02-09T19:06:12.766Z,68.02
2023-02-09T19:08:58.627Z,68.26
2023-02-09T19:11:45.649Z,68.08
2023-02-09T19:14:37.320Z,68.43
2023-02-09T19:17:23.534Z,68.19
2023-02-09T19:20:14.033Z,68.42
2023-02-09T19:23:00.065Z,68.46
2023-02-09T19:25:46.479Z,69.04
2023-02-09T19:28:32.828Z,68.68
2023-02-09T19:31:18.861Z,68.88
2023-02-09T19:34:04.662Z,69.02
2023-02-09T19:36:51.043Z,69.29
2023-02-09T19:39:38.778Z,69.19
2023-02-09T19:42:24.858Z,69.24
2023-02-09T19:45:11.182Z,69.34
2023-02-09T19:47:58.413Z,69.72
2023-02-09T19:50:44.239Z,69.84
2023-02-09T19:53:30.045Z,69.48
2023-02-09T19:56:17.776Z,69.89
2023-02-09T19:59:04.693Z,69.98
2023-02-09T20:01:51.729Z,69.99
2023-02-09T20:04:38.118Z,70.18
2023-02-09T20:07:24.126Z,69.94
2023-02-09T20:10:10.432Z,70.04
2023-02-09T20:12:56.497Z,69.86
2023-02-09T20:15:44.111Z,69.79
2023-02-09T20:18:30.513Z,70.31
2023-02-09T20:21:17.943Z,70.53
2023-02-09T20:24:09.517Z,70.62
2023-02-09T20:26:55.324Z,71.08
2023-02-09T20:29:41.179Z,71.27
2023-02-09T20:32:28.737Z,71.06
2023-02-09T20:35:14.280Z,71.20
2023-02-09T20:38:00.359Z,71.37
2023-02-09T20:40:46.540Z,71.57
2023-02-09T20:43:50.795Z,71.14
2023-02-09T20:46:55.437Z,71.40
2023-02-09T20:49:41.262Z,71.21
2023-02-09T20:52:30.976Z,71.70
2023-02-09T20:55:16.993Z,71.27
2023-02-09T20:58:03.177Z,71.34
2023-02-09T21:00:49.359Z,71.44
2023-02-09T21:03:34.928Z,71.54
2023-02-09T21:06:21.800Z,71.61
2023-02-09T21:09:09.266Z,71.83
2023-02-09T21:11:55.684Z,71.89
2023-02-09T21:14:45.224Z,71.94
2023-02-09T21:17:30.734Z,71.99
2023-02-09T21:20:17.627Z,71.98
2023-02-09T21:23:03.465Z,72.07
2023-02-09T21:25:49.231Z,71.96
2023-02-09T21:28:38.584Z,71.75
2023-02-09T21:31:26.961Z,72.33
2023-02-09T21:34:14.978Z,72.38
2023-02-09T21:37:00.895Z,72.23
2023-02-09T21:39:46.716Z,72.24
2023-02-09T21:42:33.244Z,72.18
2023-02-09T21:45:18.876Z,72.20
2023-02-09T21:48:04.952Z,72.38
2023-02-09T21:50:50.571Z,72.76
2023-02-09T21:53:38.419Z,72.60
2023-02-09T21:56:24.724Z,72.99
2023-02-09T21:59:10.790Z,72.95
2023-02-09T22:01:57.835Z,73.57
2023-02-09T22:04:44.677Z,74.05
2023-02-09T22:07:30.527Z,74.05
2023-02-09T22:10:20.454Z,73.71
2023-02-09T22:13:08.971Z,73.39
2023-02-09T22:15:54.827Z,73.63
2023-02-09T22:18:41.102Z,73.42
2023-02-09T22:21:26.763Z,73.54
2023-02-09T22:24:14.462Z,73.52
2023-02-09T22:27:00.123Z,73.39
2023-02-09T22:29:46.554Z,73.04
2023-02-09T22:32:32.689Z,73.56
2023-02-09T22:35:19.843Z,73.31
2023-02-09T22:38:05.443Z,73.39
2023-02-09T22:40:51.508Z,73.09
2023-02-09T22:43:36.928Z,73.25
2023-02-09T22:46:25.504Z,73.05
2023-02-09T22:49:21.213Z,73.23
2023-02-09T22:52:06.733Z,73.60
2023-02-09T22:54:52.992Z,73.23
2023-02-09T22:57:39.242Z,73.50
2023-02-09T23:00:24.930Z,73.36
2023-02-09T23:03:10.568Z,73.40
2023-02-09T23:05:56.842Z,73.71
2023-02-09T23:08:42.564Z,73.61
2023-02-09T23:11:29.609Z,73.90
2023-02-09T23:14:15.532Z,74.08
2023-02-09T23:17:01.180Z,74.33
2023-02-09T23:19:47.022Z,74.03
2023-02-09T23:22:33.048Z,73.93
2023-02-09T23:25:18.984Z,74.23
2023-02-09T23:28:04.564Z,74.19
2023-02-09T23:30:50.567Z,74.33
2023-02-09T23:33:37.462Z,74.27
2023-02-09T23:36:25.733Z,74.29
2023-02-09T23:39:20.403Z,74.73
2023-02-09T23:42:06.264Z,74.75
2023-02-09T23:44:51.675Z,74.53
2023-02-09T23:47:37.599Z,74.57
2023-02-09T23:50:26.605Z,75.07
2023-02-09T23:53:13.688Z,75.56
2023-02-09T23:56:03.784Z,76.01
2023-02-09T23:58:50.981Z,76.44
